SAS45H ESSV-ESSA
Flight info
| Callsign | SAS45H |
|---|---|
| Flight time | 0h 26m |
| Altitude | 19000 |
| Route | ROGMI Z229 NILUG |
| Aircraft | A319/M-SDE3FGIJ1RWXY/LB1 |
Departure
| Time | 2026-05-05 16:44 |
|---|---|
| Airport | Visby Airport (ESSV) |
Arrival
| Time | 2026-05-05 17:10 |
|---|---|
| Airport | Stockholm-Arlanda Airport (ESSA) |
| Time | Latitude | Longitude | Altitude | Speed | Heading |
|---|---|---|---|---|---|
| 2026-05-05 16:24 | 57.65969 | 18.33879 | 147 ft | 0 kts | 329° |
| 2026-05-05 16:33 | 57.65968 | 18.33879 | 146 ft | 0 kts | 329° |
| 2026-05-05 16:39 | 57.65972 | 18.33881 | 146 ft | 1 kts | 5° |
| 2026-05-05 16:39 | 57.65980 | 18.33924 | 146 ft | 8 kts | 70° |
| 2026-05-05 16:39 | 57.66006 | 18.34061 | 145 ft | 14 kts | 70° |
| 2026-05-05 16:40 | 57.65991 | 18.34219 | 147 ft | 13 kts | 111° |
| 2026-05-05 16:40 | 57.65936 | 18.34358 | 149 ft | 15 kts | 160° |
| 2026-05-05 16:40 | 57.65824 | 18.34293 | 149 ft | 19 kts | 201° |
| 2026-05-05 16:40 | 57.65698 | 18.34203 | 154 ft | 21 kts | 201° |
| 2026-05-05 16:41 | 57.65551 | 18.34095 | 154 ft | 23 kts | 202° |
| 2026-05-05 16:41 | 57.65467 | 18.34010 | 149 ft | 6 kts | 174° |
| 2026-05-05 16:41 | 57.65484 | 18.34052 | 150 ft | 5 kts | 20° |
| 2026-05-05 16:41 | 57.65485 | 18.34053 | 150 ft | 0 kts | 20° |
| 2026-05-05 16:43 | 57.65576 | 18.34115 | 154 ft | 44 kts | 20° |
| 2026-05-05 16:43 | 57.66097 | 18.34488 | 150 ft | 114 kts | 21° |
| 2026-05-05 16:43 | 57.67016 | 18.35142 | 361 ft | 153 kts | 19° |
| 2026-05-05 16:44 | 57.68021 | 18.35794 | 1195 ft | 151 kts | 2° |
| 2026-05-05 16:44 | 57.69011 | 18.35476 | 1961 ft | 146 kts | 332° |
| 2026-05-05 16:44 | 57.70021 | 18.34753 | 2539 ft | 166 kts | 333° |
| 2026-05-05 16:44 | 57.71182 | 18.33931 | 3017 ft | 191 kts | 334° |
| 2026-05-05 16:45 | 57.72514 | 18.32994 | 3632 ft | 217 kts | 334° |
| 2026-05-05 16:45 | 57.73989 | 18.31965 | 4347 ft | 242 kts | 335° |
| 2026-05-05 16:45 | 57.75616 | 18.30835 | 5341 ft | 254 kts | 335° |
| 2026-05-05 16:45 | 57.77299 | 18.29681 | 6547 ft | 258 kts | 335° |
| 2026-05-05 16:46 | 57.79001 | 18.28516 | 7694 ft | 263 kts | 334° |
| 2026-05-05 16:46 | 57.80732 | 18.27324 | 8814 ft | 268 kts | 333° |
| 2026-05-05 16:46 | 57.82498 | 18.26100 | 9919 ft | 273 kts | 333° |
| 2026-05-05 16:46 | 57.84354 | 18.24799 | 10514 ft | 296 kts | 333° |
| 2026-05-05 16:47 | 57.86355 | 18.23584 | 11111 ft | 319 kts | 343° |
| 2026-05-05 16:47 | 57.88637 | 18.23345 | 11984 ft | 332 kts | 352° |
| 2026-05-05 16:47 | 57.90972 | 18.23286 | 12910 ft | 338 kts | 352° |
| 2026-05-05 16:47 | 57.93339 | 18.23246 | 13799 ft | 344 kts | 352° |
| 2026-05-05 16:48 | 57.95752 | 18.23212 | 14598 ft | 349 kts | 352° |
| 2026-05-05 16:48 | 57.98194 | 18.23178 | 15407 ft | 353 kts | 352° |
| 2026-05-05 16:48 | 58.00640 | 18.23142 | 16199 ft | 358 kts | 352° |
| 2026-05-05 16:48 | 58.03145 | 18.23103 | 17006 ft | 362 kts | 352° |
| 2026-05-05 16:49 | 58.05688 | 18.23062 | 17805 ft | 367 kts | 352° |
| 2026-05-05 16:49 | 58.08265 | 18.23019 | 18517 ft | 372 kts | 352° |
| 2026-05-05 16:49 | 58.10866 | 18.22979 | 18790 ft | 374 kts | 352° |
| 2026-05-05 16:49 | 58.13470 | 18.22943 | 18873 ft | 370 kts | 352° |
| 2026-05-05 16:50 | 58.16028 | 18.22909 | 18887 ft | 366 kts | 351° |
| 2026-05-05 16:50 | 58.18573 | 18.22868 | 18883 ft | 365 kts | 351° |
| 2026-05-05 16:50 | 58.21085 | 18.22820 | 18887 ft | 365 kts | 351° |
| 2026-05-05 16:50 | 58.23630 | 18.22770 | 18881 ft | 365 kts | 351° |
| 2026-05-05 16:51 | 58.26175 | 18.22719 | 18883 ft | 365 kts | 351° |
| 2026-05-05 16:51 | 58.27859 | 18.22687 | 18883 ft | 365 kts | 351° |
| 2026-05-05 16:51 | 58.30399 | 18.22644 | 18876 ft | 365 kts | 351° |
| 2026-05-05 16:51 | 58.32939 | 18.22605 | 18877 ft | 365 kts | 351° |
| 2026-05-05 16:52 | 58.35480 | 18.22564 | 18881 ft | 365 kts | 351° |
| 2026-05-05 16:52 | 58.38029 | 18.22520 | 18875 ft | 365 kts | 351° |
| 2026-05-05 16:52 | 58.40570 | 18.22471 | 18878 ft | 365 kts | 351° |
| 2026-05-05 16:52 | 58.43090 | 18.22418 | 18886 ft | 365 kts | 351° |
| 2026-05-05 16:53 | 58.45632 | 18.22366 | 18884 ft | 365 kts | 351° |
| 2026-05-05 16:53 | 58.48176 | 18.22314 | 18886 ft | 366 kts | 351° |
| 2026-05-05 16:53 | 58.50744 | 18.22283 | 18874 ft | 368 kts | 352° |
| 2026-05-05 16:53 | 58.53292 | 18.22248 | 18863 ft | 364 kts | 351° |
| 2026-05-05 16:54 | 58.55806 | 18.22214 | 18634 ft | 356 kts | 351° |
| 2026-05-05 16:54 | 58.58239 | 18.22179 | 18404 ft | 353 kts | 351° |
| 2026-05-05 16:54 | 58.60690 | 18.22136 | 18165 ft | 351 kts | 351° |
| 2026-05-05 16:54 | 58.63126 | 18.22087 | 17896 ft | 349 kts | 351° |
| 2026-05-05 16:55 | 58.65564 | 18.22037 | 17626 ft | 348 kts | 351° |
| 2026-05-05 16:55 | 58.67977 | 18.21992 | 17358 ft | 346 kts | 351° |
| 2026-05-05 16:55 | 58.70380 | 18.21951 | 17076 ft | 343 kts | 351° |
| 2026-05-05 16:55 | 58.72750 | 18.21909 | 16642 ft | 338 kts | 351° |
| 2026-05-05 16:56 | 58.75092 | 18.21865 | 16178 ft | 335 kts | 351° |
| 2026-05-05 16:56 | 58.77388 | 18.21820 | 15726 ft | 332 kts | 351° |
| 2026-05-05 16:56 | 58.79689 | 18.21772 | 15267 ft | 329 kts | 351° |
| 2026-05-05 16:56 | 58.81973 | 18.21727 | 14816 ft | 327 kts | 351° |
| 2026-05-05 16:57 | 58.84251 | 18.21678 | 14554 ft | 328 kts | 351° |
| 2026-05-05 16:57 | 58.86545 | 18.21622 | 14286 ft | 329 kts | 351° |
| 2026-05-05 16:57 | 58.88831 | 18.21572 | 14019 ft | 327 kts | 351° |
| 2026-05-05 16:57 | 58.91074 | 18.21235 | 13770 ft | 316 kts | 339° |
| 2026-05-05 16:58 | 58.93094 | 18.19895 | 13518 ft | 309 kts | 331° |
| 2026-05-05 16:58 | 58.95096 | 18.18396 | 13237 ft | 307 kts | 331° |
| 2026-05-05 16:58 | 58.97083 | 18.16894 | 12977 ft | 306 kts | 331° |
| 2026-05-05 16:58 | 58.99067 | 18.15390 | 12716 ft | 305 kts | 331° |
| 2026-05-05 16:59 | 59.01041 | 18.13890 | 12449 ft | 303 kts | 331° |
| 2026-05-05 16:59 | 59.02988 | 18.12415 | 12140 ft | 297 kts | 331° |
| 2026-05-05 16:59 | 59.04896 | 18.10969 | 11762 ft | 292 kts | 331° |
| 2026-05-05 16:59 | 59.06780 | 18.09535 | 11365 ft | 289 kts | 331° |
| 2026-05-05 17:00 | 59.08682 | 18.08077 | 10963 ft | 304 kts | 332° |
| 2026-05-05 17:00 | 59.10700 | 18.06508 | 10534 ft | 318 kts | 332° |
| 2026-05-05 17:00 | 59.12768 | 18.04910 | 10086 ft | 320 kts | 332° |
| 2026-05-05 17:00 | 59.14839 | 18.03330 | 9928 ft | 320 kts | 333° |
| 2026-05-05 17:01 | 59.16913 | 18.01748 | 9815 ft | 320 kts | 333° |
| 2026-05-05 17:01 | 59.18997 | 18.00155 | 9041 ft | 323 kts | 333° |
| 2026-05-05 17:01 | 59.21068 | 17.98568 | 8371 ft | 319 kts | 333° |
| 2026-05-05 17:01 | 59.23124 | 17.96989 | 7772 ft | 309 kts | 333° |
| 2026-05-05 17:02 | 59.25041 | 17.95534 | 7504 ft | 285 kts | 333° |
| 2026-05-05 17:02 | 59.26855 | 17.94147 | 6920 ft | 277 kts | 333° |
| 2026-05-05 17:02 | 59.28635 | 17.92769 | 6312 ft | 272 kts | 333° |
| 2026-05-05 17:02 | 59.30410 | 17.91575 | 5765 ft | 267 kts | 338° |
| 2026-05-05 17:03 | 59.32142 | 17.90542 | 5457 ft | 253 kts | 338° |
| 2026-05-05 17:03 | 59.32684 | 17.90224 | 5372 ft | 248 kts | 338° |
| 2026-05-05 17:03 | 59.33298 | 17.89867 | 5279 ft | 243 kts | 338° |
| 2026-05-05 17:03 | 59.34878 | 17.88970 | 5038 ft | 230 kts | 338° |
| 2026-05-05 17:04 | 59.36384 | 17.88140 | 4885 ft | 221 kts | 338° |
| 2026-05-05 17:04 | 59.37826 | 17.87362 | 4754 ft | 209 kts | 338° |
| 2026-05-05 17:04 | 59.39231 | 17.86753 | 4619 ft | 210 kts | 350° |
| 2026-05-05 17:04 | 59.40706 | 17.87159 | 4550 ft | 215 kts | 4° |
| 2026-05-05 17:05 | 59.42187 | 17.87708 | 4408 ft | 216 kts | 3° |
| 2026-05-05 17:05 | 59.43661 | 17.88241 | 4135 ft | 215 kts | 3° |
| 2026-05-05 17:05 | 59.45126 | 17.88767 | 3846 ft | 213 kts | 3° |
| 2026-05-05 17:05 | 59.46557 | 17.89280 | 3561 ft | 210 kts | 3° |
| 2026-05-05 17:06 | 59.47979 | 17.89792 | 3308 ft | 205 kts | 3° |
| 2026-05-05 17:06 | 59.49371 | 17.90292 | 3009 ft | 201 kts | 3° |
| 2026-05-05 17:06 | 59.50718 | 17.90777 | 2731 ft | 193 kts | 3° |
| 2026-05-05 17:06 | 59.52031 | 17.91248 | 2476 ft | 190 kts | 3° |
| 2026-05-05 17:07 | 59.53302 | 17.91707 | 2219 ft | 178 kts | 4° |
| 2026-05-05 17:07 | 59.54494 | 17.92137 | 1988 ft | 171 kts | 2° |
| 2026-05-05 17:07 | 59.55656 | 17.92554 | 1757 ft | 169 kts | 3° |
| 2026-05-05 17:07 | 59.56782 | 17.92961 | 1538 ft | 158 kts | 3° |
| 2026-05-05 17:08 | 59.57785 | 17.93328 | 1327 ft | 137 kts | 2° |
| 2026-05-05 17:08 | 59.58689 | 17.93652 | 1097 ft | 129 kts | 3° |
| 2026-05-05 17:08 | 59.59554 | 17.93957 | 864 ft | 124 kts | 4° |
| 2026-05-05 17:08 | 59.60387 | 17.94263 | 670 ft | 119 kts | 2° |
| 2026-05-05 17:09 | 59.61195 | 17.94557 | 473 ft | 117 kts | 6° |
| 2026-05-05 17:09 | 59.61988 | 17.94846 | 309 ft | 115 kts | 6° |
| 2026-05-05 17:09 | 59.62769 | 17.95128 | 160 ft | 113 kts | 7° |
| 2026-05-05 17:09 | 59.63449 | 17.95369 | 123 ft | 80 kts | 11° |
| 2026-05-05 17:10 | 59.63874 | 17.95527 | 112 ft | 48 kts | 10° |
| 2026-05-05 17:10 | 59.64107 | 17.95530 | 110 ft | 29 kts | 349° |
| 2026-05-05 17:10 | 59.64271 | 17.95434 | 107 ft | 21 kts | 341° |
| 2026-05-05 17:10 | 59.64319 | 17.95401 | 107 ft | 3 kts | 340° |
| 2026-05-05 17:11 | 59.64377 | 17.95361 | 106 ft | 14 kts | 341° |
| 2026-05-05 17:11 | 59.64494 | 17.95341 | 105 ft | 21 kts | 10° |
| 2026-05-05 17:11 | 59.64650 | 17.95397 | 105 ft | 25 kts | 10° |
| 2026-05-05 17:11 | 59.64831 | 17.95461 | 107 ft | 28 kts | 11° |
| 2026-05-05 17:12 | 59.65004 | 17.95517 | 113 ft | 25 kts | 2° |
| 2026-05-05 17:12 | 59.65182 | 17.95440 | 119 ft | 27 kts | 344° |
| 2026-05-05 17:12 | 59.65361 | 17.95344 | 125 ft | 28 kts | 345° |
| 2026-05-05 17:12 | 59.65552 | 17.95243 | 126 ft | 23 kts | 346° |
| 2026-05-05 17:13 | 59.65704 | 17.95158 | 129 ft | 23 kts | 337° |
| 2026-05-05 17:13 | 59.65727 | 17.94841 | 123 ft | 24 kts | 255° |
| 2026-05-05 17:13 | 59.65685 | 17.94512 | 124 ft | 24 kts | 255° |
| 2026-05-05 17:13 | 59.65644 | 17.94189 | 121 ft | 24 kts | 256° |
| 2026-05-05 17:14 | 59.65606 | 17.93886 | 115 ft | 25 kts | 256° |
| 2026-05-05 17:14 | 59.65563 | 17.93543 | 112 ft | 24 kts | 255° |
| 2026-05-05 17:14 | 59.65526 | 17.93267 | 111 ft | 20 kts | 246° |
| 2026-05-05 17:14 | 59.65439 | 17.93140 | 111 ft | 14 kts | 247° |
| 2026-05-05 17:15 | 59.65412 | 17.93048 | 112 ft | 5 kts | 192° |
| 2026-05-05 17:15 | 59.65384 | 17.93037 | 110 ft | 1 kts | 190° |
| 2026-05-05 17:15 | 59.65383 | 17.93037 | 110 ft | 0 kts | 190° |
| 2026-05-05 17:21 | 59.65384 | 17.93037 | 110 ft | 0 kts | 190° |